Terminal Aerodrome Forecast
Issued by NWS Twin Cities, MN

Home | Current Version | Previous Version | Text Only | Print | Product List | Glossary Off
Versions: 1 2 3 4 5 6 7 8 9 10 11 12 13 14 15 16 17 18 19 20 21 22 23 24 25

000
FTUS43 KMPX 241700
TAFMSP
TAF
KMSP 241737Z 2418/2524 16009KT P6SM SCT020 BKN130
     FM242000 18012G18KT P6SM SCT030 BKN130
     FM250000 19009KT P6SM -SHRA SCT030 BKN070
      TEMPO 2500/2503 5SM -TSRA BKN030CB
     FM250300 24005KT P6SM SCT025 BKN100
     FM251400 27006KT P6SM SCT250=

USA.gov is the U.S. government's official web portal to all federal, state and local government web resources and services.